createdAt,value
2022-12-18T00:01:38.672Z,99877.06
2022-12-18T00:04:19.867Z,99875.78
2022-12-18T00:06:46.963Z,99883.03
2022-12-18T00:09:15.504Z,99887.75
2022-12-18T00:11:42.560Z,99891.47
2022-12-18T00:14:13.193Z,99886.09
2022-12-18T00:16:40.859Z,99882.56
2022-12-18T00:19:08.443Z,99880.91
2022-12-18T00:21:35.396Z,99875.75
2022-12-18T00:24:02.325Z,99881.13
2022-12-18T00:26:30.837Z,99877.44
2022-12-18T00:29:03.012Z,99880.31
2022-12-18T00:31:33.197Z,99878.84
2022-12-18T00:34:02.069Z,99875.31
2022-12-18T00:36:30.347Z,99884.41
2022-12-18T00:38:58.568Z,99889.94
2022-12-18T00:41:44.743Z,99887.06
2022-12-18T00:44:13.749Z,99894.28
2022-12-18T00:46:43.156Z,99887.47
2022-12-18T00:49:14.406Z,99894.66
2022-12-18T00:51:41.624Z,99893.00
2022-12-18T00:54:08.607Z,99892.41
2022-12-18T00:56:39.353Z,99896.72
2022-12-18T00:59:12.643Z,99884.34
2022-12-18T01:01:41.213Z,99882.66
2022-12-18T01:04:08.245Z,99883.50
2022-12-18T01:06:35.184Z,99887.22
2022-12-18T01:09:02.456Z,99888.44
2022-12-18T01:11:29.414Z,99890.09
2022-12-18T01:13:56.528Z,99885.94
2022-12-18T01:16:23.890Z,99885.94
2022-12-18T01:18:55.363Z,99890.47
2022-12-18T01:21:23.387Z,99891.50
2022-12-18T01:23:53.132Z,99889.84
2022-12-18T01:26:20.169Z,99891.69
2022-12-18T01:28:47.101Z,99895.41
2022-12-18T01:31:17.897Z,99887.53
2022-12-18T01:33:44.971Z,99900.09
2022-12-18T01:36:18.948Z,99902.97
2022-12-18T01:38:46.476Z,99903.81
2022-12-18T01:41:14.227Z,99901.97
2022-12-18T01:43:46.952Z,99909.19
2022-12-18T01:46:14.728Z,99908.53
2022-12-18T01:48:42.281Z,99908.53
2022-12-18T01:51:12.178Z,99918.28
2022-12-18T01:53:42.811Z,99919.28
2022-12-18T01:56:14.558Z,99931.69
2022-12-18T01:58:49.719Z,99925.66
2022-12-18T02:01:16.831Z,99920.47
2022-12-18T02:03:45.254Z,99926.69
2022-12-18T02:06:18.059Z,99917.19
2022-12-18T02:09:04.480Z,99914.50
2022-12-18T02:11:41.343Z,99920.66
2022-12-18T02:14:20.195Z,99920.03
2022-12-18T02:16:54.131Z,99913.84
2022-12-18T02:19:39.135Z,99920.88
2022-12-18T02:22:19.288Z,99926.25
2022-12-18T02:25:00.686Z,99923.94
2022-12-18T02:27:30.334Z,99932.81
2022-12-18T02:30:00.626Z,99934.03
2022-12-18T02:32:33.875Z,99927.00
2022-12-18T02:35:03.380Z,99926.16
2022-12-18T02:37:33.456Z,99931.09
2022-12-18T02:40:04.870Z,99930.28
2022-12-18T02:42:34.919Z,99928.59
2022-12-18T02:45:05.290Z,99929.44
2022-12-18T02:47:40.231Z,99924.91
2022-12-18T02:50:17.916Z,99920.34
2022-12-18T02:52:53.030Z,99919.31
2022-12-18T02:55:33.733Z,99926.56
2022-12-18T02:58:15.405Z,99917.03
2022-12-18T03:00:49.450Z,99918.69
2022-12-18T03:03:22.674Z,99923.41
2022-12-18T03:05:57.739Z,99921.56
2022-12-18T03:08:28.818Z,99923.41
2022-12-18T03:11:00.827Z,99923.63
2022-12-18T03:13:34.576Z,99932.47
2022-12-18T03:16:06.422Z,99936.19
2022-12-18T03:18:38.945Z,99934.50
2022-12-18T03:21:08.957Z,99939.03
2022-12-18T03:23:43.980Z,99938.19
2022-12-18T03:26:17.252Z,99936.53
2022-12-18T03:28:50.514Z,99928.47
2022-12-18T03:31:23.528Z,99935.50
2022-12-18T03:33:54.405Z,99930.97
2022-12-18T03:36:26.414Z,99937.38
2022-12-18T03:38:53.670Z,99940.25
2022-12-18T03:41:32.142Z,99945.59
2022-12-18T03:44:27.882Z,99946.22
2022-12-18T03:47:01.555Z,99943.75
2022-12-18T03:49:36.634Z,99952.00
2022-12-18T03:52:10.216Z,99956.69
2022-12-18T03:54:41.891Z,99950.31
2022-12-18T03:57:17.807Z,99940.44
2022-12-18T03:59:49.217Z,99941.28
2022-12-18T04:02:19.158Z,99944.13
2022-12-18T04:04:49.000Z,99938.09
2022-12-18T04:07:17.798Z,99937.28
2022-12-18T04:09:46.629Z,99943.66
2022-12-18T04:12:14.598Z,99932.94
2022-12-18T04:14:41.782Z,99924.88
2022-12-18T04:17:11.337Z,99927.56
2022-12-18T04:19:38.217Z,99931.94
2022-12-18T04:22:05.276Z,99939.97
2022-12-18T04:24:38.706Z,99945.34
2022-12-18T04:27:13.578Z,99931.09
2022-12-18T04:29:44.408Z,99935.81
2022-12-18T04:32:12.723Z,99932.47
2022-12-18T04:34:41.986Z,99927.31
2022-12-18T04:37:09.290Z,99918.81
2022-12-18T04:39:36.806Z,99913.25
2022-12-18T04:42:09.343Z,99919.44
2022-12-18T04:44:36.989Z,99924.00
2022-12-18T04:47:04.215Z,99926.66
2022-12-18T04:49:32.613Z,99928.34
2022-12-18T04:51:59.644Z,99929.34
2022-12-18T04:54:26.629Z,99926.00
2022-12-18T04:56:53.527Z,99930.34
2022-12-18T04:59:20.977Z,99932.03
2022-12-18T05:01:47.941Z,99931.19
2022-12-18T05:04:15.028Z,99932.41
2022-12-18T05:06:43.340Z,99932.41
2022-12-18T05:09:10.236Z,99943.13
2022-12-18T05:11:37.097Z,99944.78
2022-12-18T05:14:04.014Z,99946.84
2022-12-18T05:16:30.923Z,99938.81
2022-12-18T05:18:57.923Z,99945.16
2022-12-18T05:21:24.836Z,99954.03
2022-12-18T05:23:53.130Z,99959.59
2022-12-18T05:26:20.501Z,99954.41
2022-12-18T05:28:47.739Z,99954.22
2022-12-18T05:31:15.350Z,99956.91
2022-12-18T05:33:42.620Z,99955.25
2022-12-18T05:36:10.614Z,99961.47
2022-12-18T05:38:38.815Z,99967.63
2022-12-18T05:41:08.215Z,99968.66
2022-12-18T05:43:37.023Z,99958.97
2022-12-18T05:46:06.472Z,99961.66
2022-12-18T05:48:33.671Z,99971.53
2022-12-18T05:51:05.996Z,99966.34
2022-12-18T05:53:33.268Z,99964.34
2022-12-18T05:56:01.580Z,99975.41
2022-12-18T05:58:30.163Z,99972.09
2022-12-18T06:00:57.104Z,99975.25
2022-12-18T06:03:26.875Z,99974.88
2022-12-18T06:05:57.602Z,99971.78
2022-12-18T06:08:24.527Z,99980.50
2022-12-18T06:10:53.477Z,99985.69
2022-12-18T06:13:21.196Z,99988.81
2022-12-18T06:15:49.515Z,99996.31
2022-12-18T06:18:16.430Z,99987.50
2022-12-18T06:20:43.915Z,99993.81
2022-12-18T06:23:10.936Z,99996.41
2022-12-18T06:25:39.628Z,100015.09
2022-12-18T06:28:06.695Z,100013.75
2022-12-18T06:30:33.593Z,100018.16
2022-12-18T06:33:01.989Z,100018.72
2022-12-18T06:35:28.886Z,100022.75
2022-12-18T06:37:55.823Z,100020.56
2022-12-18T06:40:22.703Z,100016.97
2022-12-18T06:42:49.843Z,100024.50
2022-12-18T06:45:17.124Z,100023.81
2022-12-18T06:47:44.266Z,100018.94
2022-12-18T06:50:13.579Z,100015.72
2022-12-18T06:52:41.292Z,100008.16
2022-12-18T06:55:11.755Z,100013.81
2022-12-18T06:57:39.334Z,100020.53
2022-12-18T07:00:07.964Z,100016.88
2022-12-18T07:02:34.953Z,100002.41
2022-12-18T07:05:07.444Z,100007.44
2022-12-18T07:07:38.791Z,100007.28
2022-12-18T07:10:06.380Z,100004.63
2022-12-18T07:12:33.707Z,99993.03
2022-12-18T07:15:00.585Z,99995.75
2022-12-18T07:17:27.522Z,99997.66
2022-12-18T07:19:54.439Z,100006.41
2022-12-18T07:22:21.384Z,100001.06
2022-12-18T07:24:50.718Z,100002.13
2022-12-18T07:27:17.756Z,100005.84
2022-12-18T07:29:45.104Z,100004.22
2022-12-18T07:32:12.134Z,99996.16
2022-12-18T07:34:39.632Z,99985.63
2022-12-18T07:37:06.551Z,99986.66
2022-12-18T07:39:33.465Z,99979.59
2022-12-18T07:42:20.592Z,99983.53
2022-12-18T07:44:48.897Z,99987.50
2022-12-18T07:47:15.759Z,99985.03
2022-12-18T07:49:42.637Z,99993.31
2022-12-18T07:52:10.505Z,99993.53
2022-12-18T07:54:37.432Z,99989.41
2022-12-18T07:57:21.301Z,99993.34
2022-12-18T07:59:52.832Z,100000.00
2022-12-18T08:02:19.851Z,99994.19
2022-12-18T08:04:48.738Z,100004.56
2022-12-18T08:07:15.617Z,99997.94
2022-12-18T08:09:42.502Z,100001.88
2022-12-18T08:12:10.744Z,100007.88
2022-12-18T08:14:37.908Z,99995.84
2022-12-18T08:17:05.031Z,99992.75
2022-12-18T08:19:31.911Z,99989.63
2022-12-18T08:21:58.754Z,99983.00
2022-12-18T08:24:27.067Z,99982.78
2022-12-18T08:27:20.757Z,99981.75
2022-12-18T08:29:42.247Z,99984.22
2022-12-18T08:32:09.370Z,99990.22
2022-12-18T08:34:36.630Z,99989.22
2022-12-18T08:37:03.509Z,99987.97
2022-12-18T08:39:30.463Z,99985.88
2022-12-18T08:42:15.592Z,99982.13
2022-12-18T08:44:43.984Z,99981.09
2022-12-18T08:47:10.896Z,99978.41
2022-12-18T08:49:37.829Z,99986.06
2022-12-18T08:52:04.996Z,99987.53
2022-12-18T08:54:32.023Z,99990.84
2022-12-18T08:56:58.896Z,99990.84
2022-12-18T08:59:25.883Z,99984.59
2022-12-18T09:01:55.091Z,99988.16
2022-12-18T09:04:22.169Z,99987.31
2022-12-18T09:06:49.099Z,99981.69
2022-12-18T09:09:15.993Z,99988.53
2022-12-18T09:11:42.996Z,99987.53
2022-12-18T09:14:10.660Z,99988.97
2022-12-18T09:16:37.550Z,99997.66
2022-12-18T09:19:06.620Z,99997.47
2022-12-18T09:21:37.237Z,100009.13
2022-12-18T09:24:08.824Z,100006.22
2022-12-18T09:26:36.632Z,100013.28
2022-12-18T09:29:03.890Z,100006.00
2022-12-18T09:31:31.159Z,100006.81
2022-12-18T09:33:58.050Z,99994.97
2022-12-18T09:36:26.299Z,99992.91
2022-12-18T09:38:54.190Z,100002.47
2022-12-18T09:41:37.351Z,100004.94
2022-12-18T09:44:12.311Z,100004.94
2022-12-18T09:46:44.745Z,99997.47
2022-12-18T09:49:15.707Z,100003.91
2022-12-18T09:51:48.178Z,100006.81
2022-12-18T09:54:21.741Z,100003.72
2022-12-18T09:56:49.358Z,100005.78
2022-12-18T09:59:24.453Z,100013.28
2022-12-18T10:01:51.505Z,100008.91
2022-12-18T10:04:19.798Z,100011.81
2022-12-18T10:06:55.356Z,100012.84
2022-12-18T10:09:30.869Z,100008.66
2022-12-18T10:12:07.107Z,100004.31
2022-12-18T10:14:42.023Z,99996.22
2022-12-18T10:17:18.791Z,99990.22
2022-12-18T10:19:51.668Z,99991.25
2022-12-18T10:22:40.429Z,99978.78
2022-12-18T10:25:19.700Z,99973.59
2022-12-18T10:27:46.599Z,99984.41
2022-12-18T10:30:15.881Z,99993.34
2022-12-18T10:32:42.971Z,99986.28
2022-12-18T10:35:18.976Z,99984.59
2022-12-18T10:38:05.633Z,99986.28
2022-12-18T10:40:33.548Z,99989.19
2022-12-18T10:43:05.971Z,99988.34
2022-12-18T10:45:32.920Z,99981.31
2022-12-18T10:47:59.960Z,99982.34
2022-12-18T10:50:47.182Z,99968.22
2022-12-18T10:53:22.794Z,99967.41
2022-12-18T10:55:50.253Z,99978.41
2022-12-18T10:58:26.738Z,99966.97
2022-12-18T11:01:06.462Z,99969.06
2022-12-18T11:03:38.702Z,99964.50
2022-12-18T11:06:09.058Z,99953.91
2022-12-18T11:08:38.148Z,99953.31
2022-12-18T11:11:09.211Z,99949.75
2022-12-18T11:13:36.151Z,99945.41
2022-12-18T11:16:03.132Z,99932.13
2022-12-18T11:18:33.060Z,99928.63
2022-12-18T11:21:07.033Z,99929.88
2022-12-18T11:23:35.369Z,99928.00
2022-12-18T11:26:06.998Z,99925.31
2022-12-18T11:28:39.507Z,99927.41
2022-12-18T11:31:17.954Z,99929.25
2022-12-18T11:34:19.702Z,99933.81
2022-12-18T11:36:43.186Z,99926.97
2022-12-18T11:39:16.193Z,99936.09
2022-12-18T11:42:09.521Z,99933.41
2022-12-18T11:44:43.432Z,99919.53
2022-12-18T11:47:20.293Z,99923.22
2022-12-18T11:49:50.741Z,99918.06
2022-12-18T11:52:20.903Z,99919.94
2022-12-18T11:54:53.163Z,99918.28
2022-12-18T11:57:35.206Z,99927.38
2022-12-18T12:00:06.017Z,99925.53
2022-12-18T12:03:13.726Z,99935.72
2022-12-18T12:05:52.516Z,99929.69
2022-12-18T12:08:28.180Z,99925.34
2022-12-18T12:11:03.068Z,99919.09
2022-12-18T12:13:44.973Z,99923.69
2022-12-18T12:16:19.570Z,99924.69
2022-12-18T12:19:01.678Z,99921.19
2022-12-18T12:21:36.599Z,99913.31
2022-12-18T12:24:17.076Z,99908.97
2022-12-18T12:26:50.489Z,99900.03
2022-12-18T12:29:35.488Z,99891.09
2022-12-18T12:32:15.723Z,99893.81
2022-12-18T12:35:01.667Z,99892.34
2022-12-18T12:37:42.150Z,99887.19
2022-12-18T12:40:48.461Z,99885.31
2022-12-18T12:43:14.334Z,99879.28
2022-12-18T12:45:48.440Z,99876.00
2022-12-18T12:48:22.920Z,99878.47
2022-12-18T12:50:50.946Z,99875.59
2022-12-18T12:53:27.142Z,99875.59
2022-12-18T12:55:55.800Z,99876.38
2022-12-18T12:58:33.351Z,99869.16
2022-12-18T13:01:09.693Z,99858.34
2022-12-18T13:03:46.541Z,99861.91
2022-12-18T13:06:20.500Z,99858.97
2022-12-18T13:08:57.545Z,99850.66
2022-12-18T13:11:56.181Z,99861.44
2022-12-18T13:14:32.151Z,99851.72
2022-12-18T13:17:30.316Z,99853.38
2022-12-18T13:20:17.254Z,99848.19
2022-12-18T13:22:47.202Z,99841.78
2022-12-18T13:25:37.309Z,99837.19
2022-12-18T13:28:10.151Z,99836.38
2022-12-18T13:30:58.402Z,99839.06
2022-12-18T13:34:01.938Z,99846.13
2022-12-18T13:36:31.581Z,99844.03
2022-12-18T13:39:32.655Z,99844.03
2022-12-18T13:42:57.088Z,99841.56
2022-12-18T13:45:39.913Z,99844.91
2022-12-18T13:48:17.267Z,99842.19
2022-12-18T13:50:50.221Z,99834.91
2022-12-18T13:53:22.146Z,99839.28
2022-12-18T13:55:50.540Z,99838.25
2022-12-18T13:58:18.024Z,99841.56
2022-12-18T14:00:45.292Z,99839.09
2022-12-18T14:03:22.428Z,99837.22
2022-12-18T14:05:57.667Z,99837.41
2022-12-18T14:08:33.402Z,99831.00
2022-12-18T14:11:02.233Z,99832.03
2022-12-18T14:13:34.647Z,99833.06
2022-12-18T14:16:04.327Z,99828.72
2022-12-18T14:18:40.762Z,99830.38
2022-12-18T14:21:19.976Z,99836.59
2022-12-18T14:23:46.962Z,99828.72
2022-12-18T14:26:26.434Z,99827.88
2022-12-18T14:28:54.861Z,99828.91
2022-12-18T14:31:24.039Z,99819.97
2022-12-18T14:33:51.334Z,99827.25
2022-12-18T14:36:22.105Z,99827.25
2022-12-18T14:38:51.387Z,99838.84
2022-12-18T14:41:20.374Z,99843.63
2022-12-18T14:43:49.136Z,99844.66
2022-12-18T14:46:35.499Z,99845.28
2022-12-18T14:49:04.664Z,99846.53
2022-12-18T14:51:35.142Z,99838.22
2022-12-18T14:54:04.354Z,99839.88
2022-12-18T14:56:33.413Z,99836.97
2022-12-18T14:59:02.292Z,99834.28
2022-12-18T15:01:32.430Z,99831.81
2022-12-18T15:04:01.277Z,99834.50
2022-12-18T15:06:33.400Z,99832.84
2022-12-18T15:09:02.383Z,99833.66
2022-12-18T15:11:35.865Z,99827.44
2022-12-18T15:14:24.600Z,99828.25
2022-12-18T15:16:54.688Z,99832.84
2022-12-18T15:19:23.549Z,99826.63
2022-12-18T15:21:51.825Z,99823.91
2022-12-18T15:24:24.322Z,99827.44
2022-12-18T15:26:51.347Z,99826.63
2022-12-18T15:29:26.230Z,99823.09
2022-12-18T15:32:01.820Z,99815.03
2022-12-18T15:34:29.097Z,99812.31
2022-12-18T15:36:57.399Z,99810.44
2022-12-18T15:39:24.382Z,99808.78
2022-12-18T15:42:10.116Z,99809.63
2022-12-18T15:44:37.799Z,99796.38
2022-12-18T15:47:08.726Z,99809.00
2022-12-18T15:49:35.557Z,99807.94
2022-12-18T15:52:04.284Z,99800.91
2022-12-18T15:54:50.024Z,99804.44
2022-12-18T15:57:26.503Z,99818.94
2022-12-18T15:59:55.299Z,99812.75
2022-12-18T16:02:23.924Z,99810.84
2022-12-18T16:04:53.432Z,99812.75
2022-12-18T16:07:23.029Z,99820.00
2022-12-18T16:09:52.780Z,99825.38
2022-12-18T16:12:22.987Z,99824.56
2022-12-18T16:14:51.229Z,99824.56
2022-12-18T16:17:18.526Z,99827.25
2022-12-18T16:19:45.699Z,99820.19
2022-12-18T16:22:31.879Z,99818.13
2022-12-18T16:24:58.773Z,99813.78
2022-12-18T16:27:26.508Z,99812.94
2022-12-18T16:29:53.393Z,99812.94
2022-12-18T16:32:23.541Z,99818.34
2022-12-18T16:34:51.407Z,99797.63
2022-12-18T16:37:18.350Z,99808.41
2022-12-18T16:39:46.718Z,99806.50
2022-12-18T16:42:17.549Z,99804.66
2022-12-18T16:44:45.229Z,99803.81
2022-12-18T16:47:15.030Z,99798.41
2022-12-18T16:49:42.373Z,99795.72
2022-12-18T16:52:09.409Z,99790.34
2022-12-18T16:54:36.771Z,99777.91
2022-12-18T16:57:05.551Z,99773.34
2022-12-18T16:59:35.443Z,99777.06
2022-12-18T17:02:06.771Z,99785.16
2022-12-18T17:04:34.986Z,99778.13
2022-12-18T17:07:01.965Z,99774.56
2022-12-18T17:09:28.982Z,99777.28
2022-12-18T17:11:56.423Z,99772.72
2022-12-18T17:14:25.371Z,99761.34
2022-12-18T17:17:19.127Z,99765.06
2022-12-18T17:19:39.959Z,99756.97
2022-12-18T17:22:08.267Z,99744.53
2022-12-18T17:24:35.805Z,99745.59
2022-12-18T17:27:03.030Z,99741.00
2022-12-18T17:29:31.376Z,99741.84
2022-12-18T17:31:58.719Z,99732.13
2022-12-18T17:34:27.456Z,99745.59
2022-12-18T17:36:54.537Z,99740.19
2022-12-18T17:39:21.441Z,99741.84
2022-12-18T17:41:49.469Z,99738.31
2022-12-18T17:44:17.765Z,99752.63
2022-12-18T17:46:46.608Z,99749.09
2022-12-18T17:49:14.183Z,99749.94
2022-12-18T17:51:43.095Z,99744.53
2022-12-18T17:54:10.657Z,99745.38
2022-12-18T17:56:38.543Z,99740.78
2022-12-18T17:59:06.867Z,99750.56
2022-12-18T18:01:34.370Z,99741.63
2022-12-18T18:04:05.315Z,99746.19
2022-12-18T18:06:32.282Z,99747.88
2022-12-18T18:09:01.697Z,99741.63
2022-12-18T18:11:46.906Z,99749.72
2022-12-18T18:14:17.019Z,99754.28
2022-12-18T18:16:46.100Z,99746.19
2022-12-18T18:19:16.833Z,99738.94
2022-12-18T18:21:45.657Z,99743.28
2022-12-18T18:24:15.108Z,99743.06
2022-12-18T18:26:42.357Z,99743.72
2022-12-18T18:29:15.315Z,99735.41
2022-12-18T18:31:42.756Z,99725.69
2022-12-18T18:34:16.278Z,99729.41
2022-12-18T18:36:43.368Z,99732.13
2022-12-18T18:39:10.502Z,99724.03
2022-12-18T18:41:37.443Z,99715.94
2022-12-18T18:44:04.795Z,99721.34
2022-12-18T18:46:32.451Z,99725.06
2022-12-18T18:48:59.311Z,99732.31
2022-12-18T18:51:33.075Z,99734.19
2022-12-18T18:54:01.806Z,99721.34
2022-12-18T18:59:15.907Z,99721.34
2022-12-18T19:01:43.068Z,99714.28
2022-12-18T19:04:10.116Z,99718.63
2022-12-18T19:06:38.432Z,99715.94
2022-12-18T19:09:06.780Z,99721.34
2022-12-18T19:11:52.053Z,99715.94
2022-12-18T19:14:19.073Z,99713.47
2022-12-18T19:16:45.989Z,99703.53
2022-12-18T19:19:13.925Z,99699.16
2022-12-18T19:21:42.371Z,99704.31
2022-12-18T19:24:10.316Z,99702.47
2022-12-18T19:26:37.821Z,99702.47
2022-12-18T19:29:06.739Z,99705.97
2022-12-18T19:31:36.498Z,99701.41
2022-12-18T19:34:05.143Z,99700.38
2022-12-18T19:36:33.337Z,99696.88
2022-12-18T19:39:02.320Z,99687.09
2022-12-18T19:41:31.267Z,99680.91
2022-12-18T19:44:00.166Z,99682.78
2022-12-18T19:46:34.624Z,99674.69
2022-12-18T19:49:02.064Z,99665.56
2022-12-18T19:51:30.855Z,99663.09
2022-12-18T19:54:01.442Z,99672.81
2022-12-18T19:56:32.419Z,99663.69
2022-12-18T19:59:00.045Z,99668.03
2022-12-18T20:01:28.425Z,99683.78
2022-12-18T20:03:56.814Z,99694.78
2022-12-18T20:06:27.649Z,99691.03
2022-12-18T20:08:59.440Z,99698.09
2022-12-18T20:11:28.252Z,99699.97
2022-12-18T20:13:56.579Z,99705.97
2022-12-18T20:16:23.577Z,99705.97
2022-12-18T20:18:50.547Z,99702.25
2022-12-18T20:21:18.766Z,99702.25
2022-12-18T20:23:46.306Z,99699.53
2022-12-18T20:26:13.340Z,99691.47
2022-12-18T20:28:40.744Z,99696.84
2022-12-18T20:31:13.541Z,99696.22
2022-12-18T20:33:42.529Z,99683.19
2022-12-18T20:36:14.308Z,99690.63
2022-12-18T20:38:42.884Z,99691.91
2022-12-18T20:41:12.272Z,99687.34
2022-12-18T20:43:40.930Z,99693.75
2022-12-18T20:46:12.158Z,99689.63
2022-12-18T20:48:42.906Z,99696.91
2022-12-18T20:51:12.432Z,99691.94
2022-12-18T20:53:40.846Z,99697.13
2022-12-18T20:56:10.967Z,99684.06
2022-12-18T20:58:38.196Z,99688.22
2022-12-18T21:01:07.776Z,99696.13
2022-12-18T21:03:40.053Z,99702.97
2022-12-18T21:06:08.525Z,99703.38
2022-12-18T21:08:35.360Z,99695.72
2022-12-18T21:11:32.773Z,99697.16
2022-12-18T21:14:00.053Z,99685.16
2022-12-18T21:16:27.033Z,99704.41
2022-12-18T21:18:55.314Z,99704.03
2022-12-18T21:21:26.584Z,99706.31
2022-12-18T21:23:54.395Z,99706.69
2022-12-18T21:26:22.994Z,99697.97
2022-12-18T21:28:54.333Z,99701.53
2022-12-18T21:31:22.503Z,99708.97
2022-12-18T21:33:50.381Z,99711.06
2022-12-18T21:36:20.810Z,99707.13
2022-12-18T21:38:47.689Z,99703.78
2022-12-18T21:41:38.782Z,99711.47
2022-12-18T21:44:11.976Z,99709.81
2022-12-18T21:46:40.611Z,99704.22
2022-12-18T21:49:09.653Z,99710.03
2022-12-18T21:51:38.003Z,99706.88
2022-12-18T21:54:05.084Z,99701.09
2022-12-18T21:56:48.636Z,99700.69
2022-12-18T21:59:18.077Z,99701.31
2022-12-18T22:01:45.251Z,99698.41
2022-12-18T22:04:12.580Z,99690.75
2022-12-18T22:06:42.691Z,99704.38
2022-12-18T22:09:10.736Z,99700.66
2022-12-18T22:11:37.604Z,99705.63
2022-12-18T22:14:04.756Z,99703.34
2022-12-18T22:16:31.650Z,99706.63
2022-12-18T22:18:58.519Z,99701.44
2022-12-18T22:21:29.313Z,99698.13
2022-12-18T22:23:59.706Z,99702.88
2022-12-18T22:26:28.569Z,99693.56
2022-12-18T22:29:14.019Z,99688.59
2022-12-18T22:31:41.265Z,99688.19
2022-12-18T22:34:08.712Z,99683.84
2022-12-18T22:36:37.291Z,99683.41
2022-12-18T22:39:07.802Z,99684.66
2022-12-18T22:41:35.672Z,99688.97
2022-12-18T22:44:02.855Z,99677.63
2022-12-18T22:46:32.665Z,99680.50
2022-12-18T22:48:59.709Z,99672.84
2022-12-18T22:51:26.607Z,99679.44
2022-12-18T22:53:53.631Z,99681.28
2022-12-18T22:56:23.429Z,99676.34
2022-12-18T22:58:51.482Z,99688.09
2022-12-18T23:01:20.749Z,99685.66
2022-12-18T23:03:48.657Z,99685.66
2022-12-18T23:06:16.741Z,99676.09
2022-12-18T23:08:44.184Z,99676.34
2022-12-18T23:11:12.119Z,99678.38
2022-12-18T23:13:40.986Z,99674.84
2022-12-18T23:16:09.901Z,99675.28
2022-12-18T23:18:37.367Z,99680.66
2022-12-18T23:21:05.787Z,99675.47
2022-12-18T23:23:34.620Z,99665.97
2022-12-18T23:26:02.610Z,99661.59
2022-12-18T23:28:30.662Z,99644.66
2022-12-18T23:31:06.484Z,99636.59
2022-12-18T23:33:33.709Z,99644.84
2022-12-18T23:36:02.041Z,99629.56
2022-12-18T23:38:29.832Z,99631.63
2022-12-18T23:40:56.989Z,99638.84
2022-12-18T23:43:24.733Z,99639.88
2022-12-18T23:45:55.663Z,99630.16
2022-12-18T23:48:24.209Z,99633.91
2022-12-18T23:50:51.034Z,99623.53
2022-12-18T23:53:17.910Z,99626.22
2022-12-18T23:55:45.472Z,99626.03
2022-12-18T23:58:17.562Z,99627.06
